sensor_id;sensor_type;location;lat;lon;timestamp;P1;durP1;ratioP1;P2;durP2;ratioP2
35306;SDS011;21420;52.196;21.416;2023-10-19T00:00:20;95.60;;;55.10;;
35306;SDS011;21420;52.196;21.416;2023-10-19T00:02:48;97.10;;;53.20;;
35306;SDS011;21420;52.196;21.416;2023-10-19T00:05:19;92.60;;;53.70;;
35306;SDS011;21420;52.196;21.416;2023-10-19T00:07:46;92.60;;;54.80;;
35306;SDS011;21420;52.196;21.416;2023-10-19T00:10:13;93.20;;;53.80;;
35306;SDS011;21420;52.196;21.416;2023-10-19T00:12:42;88.20;;;52.60;;
35306;SDS011;21420;52.196;21.416;2023-10-19T00:15:10;91.20;;;51.70;;
35306;SDS011;21420;52.196;21.416;2023-10-19T00:17:38;89.40;;;50.20;;
35306;SDS011;21420;52.196;21.416;2023-10-19T00:20:06;103.10;;;58.70;;
35306;SDS011;21420;52.196;21.416;2023-10-19T00:22:53;100.80;;;57.00;;
35306;SDS011;21420;52.196;21.416;2023-10-19T00:25:20;95.00;;;54.20;;
35306;SDS011;21420;52.196;21.416;2023-10-19T00:27:49;97.60;;;56.00;;
35306;SDS011;21420;52.196;21.416;2023-10-19T00:30:17;97.20;;;55.50;;
35306;SDS011;21420;52.196;21.416;2023-10-19T00:32:47;121.10;;;68.90;;
35306;SDS011;21420;52.196;21.416;2023-10-19T00:35:14;93.90;;;54.20;;
35306;SDS011;21420;52.196;21.416;2023-10-19T00:37:54;90.60;;;54.00;;
35306;SDS011;21420;52.196;21.416;2023-10-19T00:40:31;83.40;;;47.20;;
35306;SDS011;21420;52.196;21.416;2023-10-19T00:43:04;89.40;;;50.20;;
35306;SDS011;21420;52.196;21.416;2023-10-19T00:45:38;92.80;;;50.10;;
35306;SDS011;21420;52.196;21.416;2023-10-19T00:48:07;81.70;;;48.20;;
35306;SDS011;21420;52.196;21.416;2023-10-19T00:50:37;87.00;;;48.80;;
35306;SDS011;21420;52.196;21.416;2023-10-19T00:53:04;82.10;;;45.90;;
35306;SDS011;21420;52.196;21.416;2023-10-19T00:55:34;75.60;;;43.40;;
35306;SDS011;21420;52.196;21.416;2023-10-19T00:58:02;70.90;;;44.30;;
35306;SDS011;21420;52.196;21.416;2023-10-19T01:00:36;78.80;;;46.80;;
35306;SDS011;21420;52.196;21.416;2023-10-19T01:03:10;85.60;;;44.40;;
35306;SDS011;21420;52.196;21.416;2023-10-19T01:05:43;77.00;;;45.10;;
35306;SDS011;21420;52.196;21.416;2023-10-19T01:08:14;68.20;;;41.70;;
35306;SDS011;21420;52.196;21.416;2023-10-19T01:10:57;70.50;;;41.50;;
35306;SDS011;21420;52.196;21.416;2023-10-19T01:13:24;70.10;;;44.10;;
35306;SDS011;21420;52.196;21.416;2023-10-19T01:15:56;76.80;;;44.50;;
35306;SDS011;21420;52.196;21.416;2023-10-19T01:18:25;71.90;;;44.80;;
35306;SDS011;21420;52.196;21.416;2023-10-19T01:20:56;74.90;;;43.20;;
35306;SDS011;21420;52.196;21.416;2023-10-19T01:23:23;69.30;;;42.90;;
35306;SDS011;21420;52.196;21.416;2023-10-19T01:25:55;64.50;;;38.50;;
35306;SDS011;21420;52.196;21.416;2023-10-19T01:28:30;72.50;;;39.80;;
35306;SDS011;21420;52.196;21.416;2023-10-19T01:31:11;63.50;;;37.90;;
35306;SDS011;21420;52.196;21.416;2023-10-19T01:33:49;59.70;;;37.40;;
35306;SDS011;21420;52.196;21.416;2023-10-19T01:36:16;65.60;;;39.50;;
35306;SDS011;21420;52.196;21.416;2023-10-19T01:38:49;65.80;;;38.80;;
35306;SDS011;21420;52.196;21.416;2023-10-19T01:41:20;62.70;;;39.20;;
35306;SDS011;21420;52.196;21.416;2023-10-19T01:43:49;64.70;;;38.20;;
35306;SDS011;21420;52.196;21.416;2023-10-19T01:46:21;61.80;;;39.20;;
35306;SDS011;21420;52.196;21.416;2023-10-19T01:48:56;65.20;;;39.50;;
35306;SDS011;21420;52.196;21.416;2023-10-19T01:51:24;65.90;;;39.20;;
35306;SDS011;21420;52.196;21.416;2023-10-19T01:53:53;62.40;;;37.30;;
35306;SDS011;21420;52.196;21.416;2023-10-19T01:56:22;64.50;;;40.10;;
35306;SDS011;21420;52.196;21.416;2023-10-19T01:58:50;65.70;;;38.40;;
35306;SDS011;21420;52.196;21.416;2023-10-19T02:01:18;65.80;;;42.30;;
35306;SDS011;21420;52.196;21.416;2023-10-19T02:03:48;70.00;;;42.10;;
35306;SDS011;21420;52.196;21.416;2023-10-19T02:06:22;65.30;;;40.60;;
35306;SDS011;21420;52.196;21.416;2023-10-19T02:09:02;69.10;;;40.10;;
35306;SDS011;21420;52.196;21.416;2023-10-19T02:11:52;72.50;;;40.20;;
35306;SDS011;21420;52.196;21.416;2023-10-19T02:14:24;70.20;;;40.40;;
35306;SDS011;21420;52.196;21.416;2023-10-19T02:16:59;66.50;;;39.20;;
35306;SDS011;21420;52.196;21.416;2023-10-19T02:19:28;61.20;;;37.90;;
35306;SDS011;21420;52.196;21.416;2023-10-19T02:22:01;58.80;;;36.30;;
35306;SDS011;21420;52.196;21.416;2023-10-19T02:24:38;62.10;;;37.40;;
35306;SDS011;21420;52.196;21.416;2023-10-19T02:27:05;61.70;;;36.90;;
35306;SDS011;21420;52.196;21.416;2023-10-19T02:29:36;67.10;;;38.30;;
35306;SDS011;21420;52.196;21.416;2023-10-19T02:32:04;60.40;;;36.50;;
35306;SDS011;21420;52.196;21.416;2023-10-19T02:34:32;69.10;;;38.10;;
35306;SDS011;21420;52.196;21.416;2023-10-19T02:36:59;61.60;;;36.80;;
35306;SDS011;21420;52.196;21.416;2023-10-19T02:39:27;58.80;;;36.90;;
35306;SDS011;21420;52.196;21.416;2023-10-19T02:41:57;63.30;;;37.90;;
35306;SDS011;21420;52.196;21.416;2023-10-19T02:44:27;60.90;;;36.20;;
35306;SDS011;21420;52.196;21.416;2023-10-19T02:46:57;55.20;;;36.20;;
35306;SDS011;21420;52.196;21.416;2023-10-19T02:49:27;59.40;;;35.70;;
35306;SDS011;21420;52.196;21.416;2023-10-19T02:51:56;57.70;;;36.70;;
35306;SDS011;21420;52.196;21.416;2023-10-19T02:54:29;63.80;;;36.50;;
35306;SDS011;21420;52.196;21.416;2023-10-19T02:56:59;61.10;;;35.30;;
35306;SDS011;21420;52.196;21.416;2023-10-19T02:59:26;55.00;;;34.40;;
35306;SDS011;21420;52.196;21.416;2023-10-19T03:01:59;57.60;;;36.30;;
35306;SDS011;21420;52.196;21.416;2023-10-19T03:04:40;57.30;;;35.30;;
35306;SDS011;21420;52.196;21.416;2023-10-19T03:07:09;57.60;;;34.60;;
35306;SDS011;21420;52.196;21.416;2023-10-19T03:09:39;56.30;;;35.10;;
35306;SDS011;21420;52.196;21.416;2023-10-19T03:12:11;60.90;;;35.50;;
35306;SDS011;21420;52.196;21.416;2023-10-19T03:14:40;60.10;;;37.60;;
35306;SDS011;21420;52.196;21.416;2023-10-19T03:17:13;66.80;;;38.60;;
35306;SDS011;21420;52.196;21.416;2023-10-19T03:19:41;65.10;;;38.90;;
35306;SDS011;21420;52.196;21.416;2023-10-19T03:22:09;58.30;;;36.10;;
35306;SDS011;21420;52.196;21.416;2023-10-19T03:24:36;64.00;;;38.90;;
35306;SDS011;21420;52.196;21.416;2023-10-19T03:27:14;62.80;;;40.60;;
35306;SDS011;21420;52.196;21.416;2023-10-19T03:29:45;70.20;;;46.20;;
35306;SDS011;21420;52.196;21.416;2023-10-19T03:34:43;68.60;;;41.60;;
35306;SDS011;21420;52.196;21.416;2023-10-19T03:37:14;78.10;;;44.10;;
35306;SDS011;21420;52.196;21.416;2023-10-19T03:39:42;80.00;;;47.00;;
35306;SDS011;21420;52.196;21.416;2023-10-19T03:42:12;74.50;;;48.40;;
35306;SDS011;21420;52.196;21.416;2023-10-19T03:44:42;85.60;;;52.20;;
35306;SDS011;21420;52.196;21.416;2023-10-19T03:47:16;90.50;;;57.10;;
35306;SDS011;21420;52.196;21.416;2023-10-19T03:50:00;77.80;;;52.50;;
35306;SDS011;21420;52.196;21.416;2023-10-19T03:52:30;69.30;;;44.50;;
35306;SDS011;21420;52.196;21.416;2023-10-19T03:54:57;68.60;;;44.20;;
35306;SDS011;21420;52.196;21.416;2023-10-19T03:57:24;65.00;;;40.30;;
35306;SDS011;21420;52.196;21.416;2023-10-19T03:59:56;60.80;;;36.70;;
35306;SDS011;21420;52.196;21.416;2023-10-19T04:02:24;56.50;;;36.10;;
35306;SDS011;21420;52.196;21.416;2023-10-19T04:04:53;59.10;;;35.90;;
35306;SDS011;21420;52.196;21.416;2023-10-19T04:07:22;58.60;;;36.60;;
35306;SDS011;21420;52.196;21.416;2023-10-19T04:09:55;61.30;;;35.40;;
35306;SDS011;21420;52.196;21.416;2023-10-19T04:12:30;59.70;;;36.90;;
35306;SDS011;21420;52.196;21.416;2023-10-19T04:14:58;57.40;;;38.60;;
35306;SDS011;21420;52.196;21.416;2023-10-19T04:17:51;67.10;;;39.40;;
35306;SDS011;21420;52.196;21.416;2023-10-19T04:20:22;61.20;;;40.00;;
35306;SDS011;21420;52.196;21.416;2023-10-19T04:22:51;66.10;;;38.10;;
35306;SDS011;21420;52.196;21.416;2023-10-19T04:25:19;64.50;;;37.70;;
35306;SDS011;21420;52.196;21.416;2023-10-19T04:27:47;58.80;;;37.90;;
35306;SDS011;21420;52.196;21.416;2023-10-19T04:30:16;58.70;;;35.40;;
35306;SDS011;21420;52.196;21.416;2023-10-19T04:32:43;59.90;;;37.40;;
35306;SDS011;21420;52.196;21.416;2023-10-19T04:35:13;62.10;;;38.90;;
35306;SDS011;21420;52.196;21.416;2023-10-19T04:37:41;64.30;;;38.90;;
35306;SDS011;21420;52.196;21.416;2023-10-19T04:40:09;62.00;;;38.80;;
35306;SDS011;21420;52.196;21.416;2023-10-19T04:42:37;63.70;;;39.80;;
35306;SDS011;21420;52.196;21.416;2023-10-19T04:45:05;62.90;;;39.60;;
35306;SDS011;21420;52.196;21.416;2023-10-19T04:47:33;71.10;;;45.70;;
35306;SDS011;21420;52.196;21.416;2023-10-19T04:50:02;70.50;;;44.30;;
35306;SDS011;21420;52.196;21.416;2023-10-19T04:52:30;70.40;;;44.10;;
35306;SDS011;21420;52.196;21.416;2023-10-19T04:54:57;72.30;;;43.10;;
35306;SDS011;21420;52.196;21.416;2023-10-19T04:57:25;90.90;;;50.00;;
35306;SDS011;21420;52.196;21.416;2023-10-19T04:59:52;73.50;;;42.80;;
35306;SDS011;21420;52.196;21.416;2023-10-19T05:02:19;84.50;;;48.10;;
35306;SDS011;21420;52.196;21.416;2023-10-19T05:04:46;73.40;;;43.00;;
35306;SDS011;21420;52.196;21.416;2023-10-19T05:07:13;60.60;;;39.10;;
35306;SDS011;21420;52.196;21.416;2023-10-19T05:09:43;63.40;;;38.00;;
35306;SDS011;21420;52.196;21.416;2023-10-19T05:12:11;77.30;;;46.60;;
35306;SDS011;21420;52.196;21.416;2023-10-19T05:14:38;73.10;;;42.60;;
35306;SDS011;21420;52.196;21.416;2023-10-19T05:17:05;87.50;;;51.40;;
35306;SDS011;21420;52.196;21.416;2023-10-19T05:19:32;70.10;;;42.60;;
35306;SDS011;21420;52.196;21.416;2023-10-19T05:22:04;74.00;;;45.40;;
35306;SDS011;21420;52.196;21.416;2023-10-19T05:24:32;69.00;;;43.60;;
35306;SDS011;21420;52.196;21.416;2023-10-19T05:26:59;73.30;;;45.20;;
35306;SDS011;21420;52.196;21.416;2023-10-19T05:29:26;64.60;;;41.70;;
35306;SDS011;21420;52.196;21.416;2023-10-19T05:31:53;66.50;;;41.00;;
35306;SDS011;21420;52.196;21.416;2023-10-19T05:34:21;63.40;;;38.30;;
35306;SDS011;21420;52.196;21.416;2023-10-19T05:36:48;93.40;;;54.70;;
35306;SDS011;21420;52.196;21.416;2023-10-19T05:39:19;83.00;;;49.50;;
35306;SDS011;21420;52.196;21.416;2023-10-19T05:41:47;82.90;;;48.40;;
35306;SDS011;21420;52.196;21.416;2023-10-19T05:44:13;72.50;;;46.90;;
35306;SDS011;21420;52.196;21.416;2023-10-19T05:46:40;69.20;;;41.90;;
35306;SDS011;21420;52.196;21.416;2023-10-19T05:49:07;66.10;;;38.40;;
35306;SDS011;21420;52.196;21.416;2023-10-19T05:51:34;57.20;;;34.10;;
35306;SDS011;21420;52.196;21.416;2023-10-19T05:54:01;66.40;;;37.40;;
35306;SDS011;21420;52.196;21.416;2023-10-19T05:58:57;64.40;;;39.80;;
35306;SDS011;21420;52.196;21.416;2023-10-19T06:01:24;70.60;;;42.60;;
35306;SDS011;21420;52.196;21.416;2023-10-19T06:03:52;95.60;;;57.90;;
35306;SDS011;21420;52.196;21.416;2023-10-19T06:06:19;84.10;;;50.80;;
35306;SDS011;21420;52.196;21.416;2023-10-19T06:08:47;85.60;;;47.60;;
35306;SDS011;21420;52.196;21.416;2023-10-19T06:11:13;75.50;;;43.80;;
35306;SDS011;21420;52.196;21.416;2023-10-19T06:13:40;90.10;;;54.20;;
35306;SDS011;21420;52.196;21.416;2023-10-19T06:16:06;91.80;;;53.00;;
35306;SDS011;21420;52.196;21.416;2023-10-19T06:18:33;77.10;;;47.80;;
35306;SDS011;21420;52.196;21.416;2023-10-19T06:21:00;84.40;;;52.10;;
35306;SDS011;21420;52.196;21.416;2023-10-19T06:23:27;85.10;;;49.40;;
35306;SDS011;21420;52.196;21.416;2023-10-19T06:25:53;78.50;;;50.70;;
35306;SDS011;21420;52.196;21.416;2023-10-19T06:28:20;84.90;;;49.50;;
35306;SDS011;21420;52.196;21.416;2023-10-19T06:30:47;80.40;;;48.90;;
35306;SDS011;21420;52.196;21.416;2023-10-19T06:33:14;83.20;;;48.20;;
35306;SDS011;21420;52.196;21.416;2023-10-19T06:35:41;87.80;;;53.10;;
35306;SDS011;21420;52.196;21.416;2023-10-19T06:38:08;89.70;;;55.70;;
35306;SDS011;21420;52.196;21.416;2023-10-19T06:40:36;89.50;;;51.90;;
35306;SDS011;21420;52.196;21.416;2023-10-19T06:43:03;88.00;;;48.90;;
35306;SDS011;21420;52.196;21.416;2023-10-19T06:45:31;71.50;;;43.60;;
35306;SDS011;21420;52.196;21.416;2023-10-19T06:47:58;69.80;;;43.00;;
35306;SDS011;21420;52.196;21.416;2023-10-19T06:50:27;62.40;;;39.50;;
35306;SDS011;21420;52.196;21.416;2023-10-19T06:52:53;61.60;;;37.40;;
35306;SDS011;21420;52.196;21.416;2023-10-19T06:55:21;62.50;;;37.70;;
35306;SDS011;21420;52.196;21.416;2023-10-19T06:57:50;51.50;;;35.90;;
35306;SDS011;21420;52.196;21.416;2023-10-19T07:00:23;52.80;;;34.20;;
35306;SDS011;21420;52.196;21.416;2023-10-19T07:02:54;48.30;;;32.70;;
35306;SDS011;21420;52.196;21.416;2023-10-19T07:05:22;45.50;;;31.90;;
35306;SDS011;21420;52.196;21.416;2023-10-19T07:07:56;54.30;;;33.40;;
35306;SDS011;21420;52.196;21.416;2023-10-19T07:10:26;51.30;;;33.30;;
35306;SDS011;21420;52.196;21.416;2023-10-19T07:12:56;46.10;;;32.10;;
35306;SDS011;21420;52.196;21.416;2023-10-19T07:15:24;40.30;;;29.40;;
35306;SDS011;21420;52.196;21.416;2023-10-19T07:17:52;42.80;;;28.70;;
35306;SDS011;21420;52.196;21.416;2023-10-19T07:20:21;40.30;;;29.20;;
35306;SDS011;21420;52.196;21.416;2023-10-19T07:22:56;40.50;;;28.30;;
35306;SDS011;21420;52.196;21.416;2023-10-19T07:25:29;37.40;;;26.60;;
35306;SDS011;21420;52.196;21.416;2023-10-19T07:27:58;38.80;;;27.70;;
35306;SDS011;21420;52.196;21.416;2023-10-19T07:30:26;38.70;;;26.90;;
35306;SDS011;21420;52.196;21.416;2023-10-19T07:32:53;34.40;;;26.30;;
35306;SDS011;21420;52.196;21.416;2023-10-19T07:35:22;35.20;;;25.30;;
35306;SDS011;21420;52.196;21.416;2023-10-19T07:37:49;33.00;;;24.20;;
35306;SDS011;21420;52.196;21.416;2023-10-19T07:40:17;31.10;;;24.30;;
35306;SDS011;21420;52.196;21.416;2023-10-19T07:42:45;29.30;;;22.60;;
35306;SDS011;21420;52.196;21.416;2023-10-19T07:45:13;27.80;;;21.80;;
35306;SDS011;21420;52.196;21.416;2023-10-19T07:47:39;27.70;;;21.00;;
35306;SDS011;21420;52.196;21.416;2023-10-19T07:50:10;27.70;;;23.30;;
35306;SDS011;21420;52.196;21.416;2023-10-19T07:52:44;26.60;;;20.60;;
35306;SDS011;21420;52.196;21.416;2023-10-19T07:55:19;27.00;;;20.90;;
35306;SDS011;21420;52.196;21.416;2023-10-19T07:57:49;26.50;;;21.50;;
35306;SDS011;21420;52.196;21.416;2023-10-19T08:00:18;25.70;;;19.90;;
35306;SDS011;21420;52.196;21.416;2023-10-19T08:02:46;27.80;;;20.00;;
35306;SDS011;21420;52.196;21.416;2023-10-19T08:05:14;26.50;;;19.30;;
35306;SDS011;21420;52.196;21.416;2023-10-19T08:07:42;23.10;;;19.20;;
35306;SDS011;21420;52.196;21.416;2023-10-19T08:10:11;24.30;;;17.90;;
35306;SDS011;21420;52.196;21.416;2023-10-19T08:12:39;19.90;;;17.20;;
35306;SDS011;21420;52.196;21.416;2023-10-19T08:15:10;22.10;;;17.10;;
35306;SDS011;21420;52.196;21.416;2023-10-19T08:17:38;22.40;;;16.40;;
35306;SDS011;21420;52.196;21.416;2023-10-19T08:20:10;25.40;;;16.80;;
35306;SDS011;21420;52.196;21.416;2023-10-19T08:22:51;19.90;;;16.20;;
35306;SDS011;21420;52.196;21.416;2023-10-19T08:25:18;17.90;;;15.10;;
35306;SDS011;21420;52.196;21.416;2023-10-19T08:27:45;21.20;;;16.60;;
35306;SDS011;21420;52.196;21.416;2023-10-19T08:30:15;21.10;;;16.40;;
35306;SDS011;21420;52.196;21.416;2023-10-19T08:32:47;19.50;;;16.30;;
35306;SDS011;21420;52.196;21.416;2023-10-19T08:35:15;18.20;;;13.90;;
35306;SDS011;21420;52.196;21.416;2023-10-19T08:37:45;16.00;;;13.10;;
35306;SDS011;21420;52.196;21.416;2023-10-19T08:40:13;14.10;;;12.30;;
35306;SDS011;21420;52.196;21.416;2023-10-19T08:42:45;13.90;;;11.40;;
35306;SDS011;21420;52.196;21.416;2023-10-19T08:45:12;13.00;;;10.70;;
35306;SDS011;21420;52.196;21.416;2023-10-19T08:47:41;12.90;;;10.30;;
35306;SDS011;21420;52.196;21.416;2023-10-19T08:50:14;11.20;;;9.40;;
35306;SDS011;21420;52.196;21.416;2023-10-19T08:52:52;13.90;;;11.40;;
35306;SDS011;21420;52.196;21.416;2023-10-19T08:55:20;16.80;;;9.80;;
35306;SDS011;21420;52.196;21.416;2023-10-19T08:58:06;11.30;;;8.60;;
35306;SDS011;21420;52.196;21.416;2023-10-19T09:00:46;10.20;;;8.70;;
35306;SDS011;21420;52.196;21.416;2023-10-19T09:03:16;11.10;;;8.80;;
35306;SDS011;21420;52.196;21.416;2023-10-19T09:05:44;10.70;;;8.80;;
35306;SDS011;21420;52.196;21.416;2023-10-19T09:08:18;10.30;;;8.20;;
35306;SDS011;21420;52.196;21.416;2023-10-19T09:10:47;9.00;;;8.10;;
35306;SDS011;21420;52.196;21.416;2023-10-19T09:13:15;9.90;;;8.50;;
35306;SDS011;21420;52.196;21.416;2023-10-19T09:15:46;8.80;;;7.40;;
35306;SDS011;21420;52.196;21.416;2023-10-19T09:18:16;10.20;;;9.10;;
35306;SDS011;21420;52.196;21.416;2023-10-19T09:20:46;10.50;;;8.90;;
35306;SDS011;21420;52.196;21.416;2023-10-19T09:23:21;13.50;;;8.80;;
35306;SDS011;21420;52.196;21.416;2023-10-19T09:25:52;12.90;;;9.80;;
35306;SDS011;21420;52.196;21.416;2023-10-19T09:28:22;11.00;;;9.30;;
35306;SDS011;21420;52.196;21.416;2023-10-19T09:30:51;11.50;;;9.30;;
35306;SDS011;21420;52.196;21.416;2023-10-19T09:33:19;14.30;;;9.00;;
35306;SDS011;21420;52.196;21.416;2023-10-19T09:35:48;11.40;;;9.50;;
35306;SDS011;21420;52.196;21.416;2023-10-19T09:38:19;12.40;;;10.00;;
35306;SDS011;21420;52.196;21.416;2023-10-19T09:43:40;11.40;;;9.50;;
35306;SDS011;21420;52.196;21.416;2023-10-19T09:46:06;12.00;;;9.80;;
35306;SDS011;21420;52.196;21.416;2023-10-19T09:48:41;12.70;;;10.00;;
35306;SDS011;21420;52.196;21.416;2023-10-19T09:51:09;13.30;;;11.00;;
35306;SDS011;21420;52.196;21.416;2023-10-19T09:53:39;15.00;;;9.80;;
35306;SDS011;21420;52.196;21.416;2023-10-19T09:56:10;13.60;;;10.40;;
35306;SDS011;21420;52.196;21.416;2023-10-19T09:58:45;11.90;;;10.50;;
35306;SDS011;21420;52.196;21.416;2023-10-19T10:01:17;15.80;;;10.60;;
35306;SDS011;21420;52.196;21.416;2023-10-19T10:03:51;14.10;;;10.60;;
35306;SDS011;21420;52.196;21.416;2023-10-19T10:06:28;14.20;;;11.00;;
35306;SDS011;21420;52.196;21.416;2023-10-19T10:08:58;13.60;;;11.50;;
35306;SDS011;21420;52.196;21.416;2023-10-19T10:11:27;14.30;;;11.20;;
35306;SDS011;21420;52.196;21.416;2023-10-19T10:13:55;13.90;;;11.40;;
35306;SDS011;21420;52.196;21.416;2023-10-19T10:16:26;15.20;;;11.70;;
35306;SDS011;21420;52.196;21.416;2023-10-19T10:18:57;14.30;;;11.90;;
35306;SDS011;21420;52.196;21.416;2023-10-19T10:21:28;13.50;;;11.10;;
35306;SDS011;21420;52.196;21.416;2023-10-19T10:23:57;11.90;;;10.60;;
35306;SDS011;21420;52.196;21.416;2023-10-19T10:26:29;11.70;;;9.20;;
35306;SDS011;21420;52.196;21.416;2023-10-19T10:31:50;11.40;;;8.90;;
35306;SDS011;21420;52.196;21.416;2023-10-19T10:37:12;12.50;;;9.90;;
35306;SDS011;21420;52.196;21.416;2023-10-19T10:39:40;12.10;;;9.10;;
35306;SDS011;21420;52.196;21.416;2023-10-19T10:42:10;13.50;;;8.70;;
35306;SDS011;21420;52.196;21.416;2023-10-19T10:44:38;17.60;;;8.70;;
35306;SDS011;21420;52.196;21.416;2023-10-19T10:47:07;11.50;;;9.10;;
35306;SDS011;21420;52.196;21.416;2023-10-19T10:52:28;12.40;;;9.70;;
35306;SDS011;21420;52.196;21.416;2023-10-19T10:54:56;12.30;;;9.30;;
35306;SDS011;21420;52.196;21.416;2023-10-19T10:57:44;12.40;;;9.40;;
35306;SDS011;21420;52.196;21.416;2023-10-19T11:00:14;12.70;;;9.40;;
35306;SDS011;21420;52.196;21.416;2023-10-19T11:02:43;12.90;;;10.10;;
35306;SDS011;21420;52.196;21.416;2023-10-19T11:07:40;14.40;;;9.90;;
35306;SDS011;21420;52.196;21.416;2023-10-19T11:10:08;15.50;;;10.50;;
35306;SDS011;21420;52.196;21.416;2023-10-19T11:12:36;12.30;;;10.40;;
35306;SDS011;21420;52.196;21.416;2023-10-19T11:15:04;16.70;;;11.10;;
35306;SDS011;21420;52.196;21.416;2023-10-19T11:17:42;15.20;;;10.30;;
35306;SDS011;21420;52.196;21.416;2023-10-19T11:20:10;14.70;;;10.90;;
35306;SDS011;21420;52.196;21.416;2023-10-19T11:22:51;13.00;;;10.10;;
35306;SDS011;21420;52.196;21.416;2023-10-19T11:25:20;13.50;;;10.20;;
35306;SDS011;21420;52.196;21.416;2023-10-19T11:27:48;16.10;;;10.90;;
35306;SDS011;21420;52.196;21.416;2023-10-19T11:30:22;35.20;;;26.70;;
35306;SDS011;21420;52.196;21.416;2023-10-19T11:32:50;17.80;;;15.90;;
35306;SDS011;21420;52.196;21.416;2023-10-19T11:35:20;16.30;;;11.50;;
35306;SDS011;21420;52.196;21.416;2023-10-19T11:37:49;17.40;;;10.70;;
35306;SDS011;21420;52.196;21.416;2023-10-19T11:40:22;11.50;;;9.60;;
35306;SDS011;21420;52.196;21.416;2023-10-19T11:42:50;19.40;;;11.00;;
35306;SDS011;21420;52.196;21.416;2023-10-19T11:45:17;17.00;;;10.90;;
35306;SDS011;21420;52.196;21.416;2023-10-19T11:47:45;15.80;;;11.80;;
35306;SDS011;21420;52.196;21.416;2023-10-19T11:50:12;28.60;;;20.60;;
35306;SDS011;21420;52.196;21.416;2023-10-19T11:52:44;15.50;;;12.60;;
35306;SDS011;21420;52.196;21.416;2023-10-19T11:55:14;16.40;;;11.80;;
35306;SDS011;21420;52.196;21.416;2023-10-19T11:57:42;12.40;;;9.80;;
35306;SDS011;21420;52.196;21.416;2023-10-19T12:00:10;17.80;;;11.20;;
35306;SDS011;21420;52.196;21.416;2023-10-19T12:03:01;20.70;;;11.60;;
35306;SDS011;21420;52.196;21.416;2023-10-19T12:05:28;13.70;;;10.70;;
35306;SDS011;21420;52.196;21.416;2023-10-19T12:07:55;23.10;;;11.90;;
35306;SDS011;21420;52.196;21.416;2023-10-19T12:12:59;19.00;;;13.40;;
35306;SDS011;21420;52.196;21.416;2023-10-19T12:15:28;14.90;;;11.50;;
35306;SDS011;21420;52.196;21.416;2023-10-19T12:17:56;19.80;;;12.10;;
35306;SDS011;21420;52.196;21.416;2023-10-19T12:20:24;16.10;;;12.50;;
35306;SDS011;21420;52.196;21.416;2023-10-19T12:22:50;20.70;;;13.10;;
35306;SDS011;21420;52.196;21.416;2023-10-19T12:25:21;16.70;;;12.20;;
35306;SDS011;21420;52.196;21.416;2023-10-19T12:28:00;26.80;;;16.50;;
35306;SDS011;21420;52.196;21.416;2023-10-19T12:30:27;16.40;;;13.10;;
35306;SDS011;21420;52.196;21.416;2023-10-19T12:33:05;19.20;;;13.10;;
35306;SDS011;21420;52.196;21.416;2023-10-19T12:35:42;19.10;;;14.10;;
35306;SDS011;21420;52.196;21.416;2023-10-19T12:38:18;21.10;;;14.60;;
35306;SDS011;21420;52.196;21.416;2023-10-19T12:40:47;23.60;;;16.30;;
35306;SDS011;21420;52.196;21.416;2023-10-19T12:43:15;17.00;;;12.70;;
35306;SDS011;21420;52.196;21.416;2023-10-19T12:45:42;16.60;;;13.20;;
35306;SDS011;21420;52.196;21.416;2023-10-19T12:48:10;21.30;;;16.00;;
35306;SDS011;21420;52.196;21.416;2023-10-19T12:50:37;24.20;;;16.70;;
35306;SDS011;21420;52.196;21.416;2023-10-19T12:53:05;17.20;;;14.10;;
35306;SDS011;21420;52.196;21.416;2023-10-19T12:55:33;19.80;;;14.20;;
35306;SDS011;21420;52.196;21.416;2023-10-19T12:58:01;19.90;;;14.80;;
35306;SDS011;21420;52.196;21.416;2023-10-19T13:00:33;19.90;;;14.60;;
35306;SDS011;21420;52.196;21.416;2023-10-19T13:03:07;18.30;;;12.80;;
35306;SDS011;21420;52.196;21.416;2023-10-19T13:05:35;18.40;;;12.70;;
35306;SDS011;21420;52.196;21.416;2023-10-19T13:08:13;17.00;;;12.80;;
35306;SDS011;21420;52.196;21.416;2023-10-19T13:10:41;20.70;;;13.50;;
35306;SDS011;21420;52.196;21.416;2023-10-19T13:13:10;19.90;;;12.60;;
35306;SDS011;21420;52.196;21.416;2023-10-19T13:15:39;15.90;;;12.60;;
35306;SDS011;21420;52.196;21.416;2023-10-19T13:18:08;17.70;;;12.60;;
35306;SDS011;21420;52.196;21.416;2023-10-19T13:20:37;23.30;;;14.30;;
35306;SDS011;21420;52.196;21.416;2023-10-19T13:23:05;24.40;;;16.60;;
35306;SDS011;21420;52.196;21.416;2023-10-19T13:25:38;25.50;;;16.00;;
35306;SDS011;21420;52.196;21.416;2023-10-19T13:28:06;29.70;;;19.10;;
35306;SDS011;21420;52.196;21.416;2023-10-19T13:30:41;28.80;;;16.50;;
35306;SDS011;21420;52.196;21.416;2023-10-19T13:33:09;18.80;;;13.10;;
35306;SDS011;21420;52.196;21.416;2023-10-19T13:35:37;20.60;;;14.00;;
35306;SDS011;21420;52.196;21.416;2023-10-19T13:38:05;20.40;;;14.00;;
35306;SDS011;21420;52.196;21.416;2023-10-19T13:40:34;19.10;;;14.10;;
35306;SDS011;21420;52.196;21.416;2023-10-19T13:43:02;20.70;;;14.50;;
35306;SDS011;21420;52.196;21.416;2023-10-19T13:45:33;19.00;;;13.40;;
35306;SDS011;21420;52.196;21.416;2023-10-19T13:48:01;23.50;;;16.20;;
35306;SDS011;21420;52.196;21.416;2023-10-19T13:50:30;17.80;;;14.40;;
35306;SDS011;21420;52.196;21.416;2023-10-19T13:52:58;17.00;;;13.30;;
35306;SDS011;21420;52.196;21.416;2023-10-19T13:55:27;25.30;;;15.20;;
35306;SDS011;21420;52.196;21.416;2023-10-19T13:57:55;26.50;;;17.00;;
35306;SDS011;21420;52.196;21.416;2023-10-19T14:00:22;22.20;;;14.50;;
35306;SDS011;21420;52.196;21.416;2023-10-19T14:03:05;27.50;;;16.80;;
35306;SDS011;21420;52.196;21.416;2023-10-19T14:05:36;20.80;;;14.80;;
35306;SDS011;21420;52.196;21.416;2023-10-19T14:08:04;22.60;;;14.60;;
35306;SDS011;21420;52.196;21.416;2023-10-19T14:10:33;22.20;;;15.20;;
35306;SDS011;21420;52.196;21.416;2023-10-19T14:13:01;24.80;;;16.40;;
35306;SDS011;21420;52.196;21.416;2023-10-19T14:15:28;26.70;;;16.20;;
35306;SDS011;21420;52.196;21.416;2023-10-19T14:17:56;27.00;;;20.20;;
35306;SDS011;21420;52.196;21.416;2023-10-19T14:20:28;26.80;;;17.50;;
35306;SDS011;21420;52.196;21.416;2023-10-19T14:22:56;26.00;;;17.90;;
35306;SDS011;21420;52.196;21.416;2023-10-19T14:25:24;30.00;;;19.40;;
35306;SDS011;21420;52.196;21.416;2023-10-19T14:27:51;25.50;;;16.00;;
35306;SDS011;21420;52.196;21.416;2023-10-19T14:30:22;19.60;;;14.80;;
35306;SDS011;21420;52.196;21.416;2023-10-19T14:32:50;20.10;;;14.80;;
35306;SDS011;21420;52.196;21.416;2023-10-19T14:35:21;24.50;;;15.50;;
35306;SDS011;21420;52.196;21.416;2023-10-19T14:37:50;25.40;;;16.10;;
35306;SDS011;21420;52.196;21.416;2023-10-19T14:40:22;23.80;;;16.60;;
35306;SDS011;21420;52.196;21.416;2023-10-19T14:45:21;27.70;;;16.30;;
35306;SDS011;21420;52.196;21.416;2023-10-19T14:47:52;27.40;;;16.60;;
35306;SDS011;21420;52.196;21.416;2023-10-19T14:50:24;26.20;;;17.00;;